sensor_id;sensor_type;location;lat;lon;timestamp;P1;durP1;ratioP1;P2;durP2;ratioP2
71622;SDS011;59473;53.214;5.728;2022-08-25T00:01:48;53.92;;;37.60;;
71622;SDS011;59473;53.214;5.728;2022-08-25T00:04:14;55.50;;;36.93;;
71622;SDS011;59473;53.214;5.728;2022-08-25T00:06:40;44.92;;;35.22;;
71622;SDS011;59473;53.214;5.728;2022-08-25T00:09:07;51.15;;;37.78;;
71622;SDS011;59473;53.214;5.728;2022-08-25T00:11:33;49.65;;;36.60;;
71622;SDS011;59473;53.214;5.728;2022-08-25T00:14:00;50.70;;;36.77;;
71622;SDS011;59473;53.214;5.728;2022-08-25T00:16:27;52.08;;;37.17;;
71622;SDS011;59473;53.214;5.728;2022-08-25T00:18:54;53.10;;;38.75;;
71622;SDS011;59473;53.214;5.728;2022-08-25T00:21:20;51.40;;;36.90;;
71622;SDS011;59473;53.214;5.728;2022-08-25T00:23:46;52.37;;;39.10;;
71622;SDS011;59473;53.214;5.728;2022-08-25T00:26:11;50.97;;;38.07;;
71622;SDS011;59473;53.214;5.728;2022-08-25T00:28:37;51.53;;;38.67;;
71622;SDS011;59473;53.214;5.728;2022-08-25T00:31:04;57.80;;;38.88;;
71622;SDS011;59473;53.214;5.728;2022-08-25T00:33:29;51.53;;;37.30;;
71622;SDS011;59473;53.214;5.728;2022-08-25T00:35:58;56.22;;;39.25;;
71622;SDS011;59473;53.214;5.728;2022-08-25T00:38:23;50.50;;;35.83;;
71622;SDS011;59473;53.214;5.728;2022-08-25T00:40:49;51.63;;;37.00;;
71622;SDS011;59473;53.214;5.728;2022-08-25T00:45:58;51.10;;;35.50;;
71622;SDS011;59473;53.214;5.728;2022-08-25T00:48:23;50.27;;;37.83;;
71622;SDS011;59473;53.214;5.728;2022-08-25T00:50:48;53.67;;;37.27;;
71622;SDS011;59473;53.214;5.728;2022-08-25T00:53:13;52.63;;;36.00;;
71622;SDS011;59473;53.214;5.728;2022-08-25T00:55:39;52.93;;;37.13;;
71622;SDS011;59473;53.214;5.728;2022-08-25T00:58:06;49.83;;;36.13;;
71622;SDS011;59473;53.214;5.728;2022-08-25T01:00:39;49.25;;;35.90;;
71622;SDS011;59473;53.214;5.728;2022-08-25T01:03:05;50.20;;;37.22;;
71622;SDS011;59473;53.214;5.728;2022-08-25T01:05:30;48.23;;;36.70;;
71622;SDS011;59473;53.214;5.728;2022-08-25T01:07:56;50.42;;;36.50;;
71622;SDS011;59473;53.214;5.728;2022-08-25T01:10:23;46.50;;;35.05;;
71622;SDS011;59473;53.214;5.728;2022-08-25T01:12:49;48.72;;;34.53;;
71622;SDS011;59473;53.214;5.728;2022-08-25T01:15:16;51.35;;;35.53;;
71622;SDS011;59473;53.214;5.728;2022-08-25T01:17:46;48.30;;;34.97;;
71622;SDS011;59473;53.214;5.728;2022-08-25T01:20:13;48.55;;;34.15;;
71622;SDS011;59473;53.214;5.728;2022-08-25T01:22:39;49.43;;;35.23;;
71622;SDS011;59473;53.214;5.728;2022-08-25T01:25:08;46.40;;;33.95;;
71622;SDS011;59473;53.214;5.728;2022-08-25T01:27:39;43.83;;;32.90;;
71622;SDS011;59473;53.214;5.728;2022-08-25T01:30:05;43.33;;;31.63;;
71622;SDS011;59473;53.214;5.728;2022-08-25T01:32:32;39.65;;;30.70;;
71622;SDS011;59473;53.214;5.728;2022-08-25T01:34:57;39.00;;;29.48;;
71622;SDS011;59473;53.214;5.728;2022-08-25T01:37:22;39.37;;;28.73;;
71622;SDS011;59473;53.214;5.728;2022-08-25T01:39:47;38.67;;;26.97;;
71622;SDS011;59473;53.214;5.728;2022-08-25T01:42:33;38.93;;;26.93;;
71622;SDS011;59473;53.214;5.728;2022-08-25T01:45:01;34.58;;;26.10;;
71622;SDS011;59473;53.214;5.728;2022-08-25T01:47:26;33.97;;;25.05;;
71622;SDS011;59473;53.214;5.728;2022-08-25T01:49:52;32.93;;;20.97;;
71622;SDS011;59473;53.214;5.728;2022-08-25T01:52:28;29.20;;;20.30;;
71622;SDS011;59473;53.214;5.728;2022-08-25T01:54:55;27.02;;;18.10;;
71622;SDS011;59473;53.214;5.728;2022-08-25T01:57:21;24.08;;;16.85;;
71622;SDS011;59473;53.214;5.728;2022-08-25T01:59:46;20.95;;;15.68;;
71622;SDS011;59473;53.214;5.728;2022-08-25T02:02:11;24.15;;;15.10;;
71622;SDS011;59473;53.214;5.728;2022-08-25T02:04:37;18.10;;;12.50;;
71622;SDS011;59473;53.214;5.728;2022-08-25T02:07:04;18.27;;;13.15;;
71622;SDS011;59473;53.214;5.728;2022-08-25T02:09:29;17.08;;;11.23;;
71622;SDS011;59473;53.214;5.728;2022-08-25T02:11:55;16.27;;;11.25;;
71622;SDS011;59473;53.214;5.728;2022-08-25T02:14:20;16.03;;;10.17;;
71622;SDS011;59473;53.214;5.728;2022-08-25T02:16:48;15.43;;;9.90;;
71622;SDS011;59473;53.214;5.728;2022-08-25T02:19:14;16.38;;;8.93;;
71622;SDS011;59473;53.214;5.728;2022-08-25T02:21:40;17.37;;;8.77;;
71622;SDS011;59473;53.214;5.728;2022-08-25T02:24:06;17.55;;;9.27;;
71622;SDS011;59473;53.214;5.728;2022-08-25T02:26:32;14.45;;;8.75;;
71622;SDS011;59473;53.214;5.728;2022-08-25T02:28:57;14.60;;;8.80;;
71622;SDS011;59473;53.214;5.728;2022-08-25T02:31:23;13.40;;;7.87;;
71622;SDS011;59473;53.214;5.728;2022-08-25T02:33:49;11.82;;;7.50;;
71622;SDS011;59473;53.214;5.728;2022-08-25T02:36:15;11.68;;;7.43;;
71622;SDS011;59473;53.214;5.728;2022-08-25T02:38:40;16.17;;;7.53;;
71622;SDS011;59473;53.214;5.728;2022-08-25T02:41:14;15.57;;;7.80;;
71622;SDS011;59473;53.214;5.728;2022-08-25T02:43:41;14.88;;;7.10;;
71622;SDS011;59473;53.214;5.728;2022-08-25T02:46:06;15.68;;;7.40;;
71622;SDS011;59473;53.214;5.728;2022-08-25T02:48:32;11.57;;;6.57;;
71622;SDS011;59473;53.214;5.728;2022-08-25T02:50:58;13.33;;;6.87;;
71622;SDS011;59473;53.214;5.728;2022-08-25T02:53:24;13.02;;;6.50;;
71622;SDS011;59473;53.214;5.728;2022-08-25T02:55:50;11.10;;;6.43;;
71622;SDS011;59473;53.214;5.728;2022-08-25T02:58:15;14.00;;;6.75;;
71622;SDS011;59473;53.214;5.728;2022-08-25T03:00:40;13.77;;;6.70;;
71622;SDS011;59473;53.214;5.728;2022-08-25T03:03:06;17.50;;;7.15;;
71622;SDS011;59473;53.214;5.728;2022-08-25T03:05:31;10.37;;;6.40;;
71622;SDS011;59473;53.214;5.728;2022-08-25T03:07:57;11.70;;;5.90;;
71622;SDS011;59473;53.214;5.728;2022-08-25T03:10:22;14.47;;;6.60;;
71622;SDS011;59473;53.214;5.728;2022-08-25T03:12:48;13.18;;;6.43;;
71622;SDS011;59473;53.214;5.728;2022-08-25T03:15:14;9.87;;;5.60;;
71622;SDS011;59473;53.214;5.728;2022-08-25T03:17:40;10.35;;;5.90;;
71622;SDS011;59473;53.214;5.728;2022-08-25T03:20:06;11.30;;;5.65;;
71622;SDS011;59473;53.214;5.728;2022-08-25T03:22:31;9.97;;;5.57;;
71622;SDS011;59473;53.214;5.728;2022-08-25T03:24:57;12.83;;;5.87;;
71622;SDS011;59473;53.214;5.728;2022-08-25T03:27:42;11.48;;;5.68;;
71622;SDS011;59473;53.214;5.728;2022-08-25T03:30:07;9.63;;;5.27;;
71622;SDS011;59473;53.214;5.728;2022-08-25T03:32:33;10.63;;;5.10;;
71622;SDS011;59473;53.214;5.728;2022-08-25T03:34:58;11.40;;;5.32;;
71622;SDS011;59473;53.214;5.728;2022-08-25T03:37:25;8.15;;;4.55;;
71622;SDS011;59473;53.214;5.728;2022-08-25T03:39:50;9.03;;;4.67;;
71622;SDS011;59473;53.214;5.728;2022-08-25T03:42:16;7.63;;;4.17;;
71622;SDS011;59473;53.214;5.728;2022-08-25T03:44:41;9.77;;;4.43;;
71622;SDS011;59473;53.214;5.728;2022-08-25T03:47:06;10.68;;;4.30;;
71622;SDS011;59473;53.214;5.728;2022-08-25T03:49:31;9.07;;;4.38;;
71622;SDS011;59473;53.214;5.728;2022-08-25T03:51:57;8.67;;;4.00;;
71622;SDS011;59473;53.214;5.728;2022-08-25T03:54:24;8.10;;;4.20;;
71622;SDS011;59473;53.214;5.728;2022-08-25T03:56:50;8.98;;;3.88;;
71622;SDS011;59473;53.214;5.728;2022-08-25T03:59:15;11.80;;;3.75;;
71622;SDS011;59473;53.214;5.728;2022-08-25T04:01:41;9.37;;;4.33;;
71622;SDS011;59473;53.214;5.728;2022-08-25T04:04:08;10.15;;;4.07;;
71622;SDS011;59473;53.214;5.728;2022-08-25T04:06:33;9.75;;;3.95;;
71622;SDS011;59473;53.214;5.728;2022-08-25T04:08:59;11.07;;;3.90;;
71622;SDS011;59473;53.214;5.728;2022-08-25T04:11:24;8.90;;;3.67;;
71622;SDS011;59473;53.214;5.728;2022-08-25T04:13:50;9.10;;;3.83;;
71622;SDS011;59473;53.214;5.728;2022-08-25T04:16:17;9.40;;;3.60;;
71622;SDS011;59473;53.214;5.728;2022-08-25T04:18:43;10.23;;;3.92;;
71622;SDS011;59473;53.214;5.728;2022-08-25T04:21:08;8.03;;;3.70;;
71622;SDS011;59473;53.214;5.728;2022-08-25T04:23:34;10.55;;;3.80;;
71622;SDS011;59473;53.214;5.728;2022-08-25T04:26:00;9.43;;;3.50;;
71622;SDS011;59473;53.214;5.728;2022-08-25T04:28:25;8.93;;;3.70;;
71622;SDS011;59473;53.214;5.728;2022-08-25T04:30:52;7.43;;;3.67;;
71622;SDS011;59473;53.214;5.728;2022-08-25T04:33:17;8.00;;;3.43;;
71622;SDS011;59473;53.214;5.728;2022-08-25T04:35:46;8.77;;;3.80;;
71622;SDS011;59473;53.214;5.728;2022-08-25T04:38:11;8.50;;;3.75;;
71622;SDS011;59473;53.214;5.728;2022-08-25T04:40:36;8.65;;;3.22;;
71622;SDS011;59473;53.214;5.728;2022-08-25T04:43:02;7.97;;;3.92;;
71622;SDS011;59473;53.214;5.728;2022-08-25T04:45:27;8.02;;;3.47;;
71622;SDS011;59473;53.214;5.728;2022-08-25T04:47:53;6.93;;;3.38;;
71622;SDS011;59473;53.214;5.728;2022-08-25T04:50:19;8.95;;;3.28;;
71622;SDS011;59473;53.214;5.728;2022-08-25T04:52:44;10.67;;;3.57;;
71622;SDS011;59473;53.214;5.728;2022-08-25T04:55:09;8.33;;;3.63;;
71622;SDS011;59473;53.214;5.728;2022-08-25T04:57:34;7.87;;;3.67;;
71622;SDS011;59473;53.214;5.728;2022-08-25T05:00:00;10.97;;;3.97;;
71622;SDS011;59473;53.214;5.728;2022-08-25T05:02:26;9.45;;;3.47;;
71622;SDS011;59473;53.214;5.728;2022-08-25T05:04:51;7.53;;;3.17;;
71622;SDS011;59473;53.214;5.728;2022-08-25T05:07:20;7.70;;;3.92;;
71622;SDS011;59473;53.214;5.728;2022-08-25T05:09:45;7.57;;;3.53;;
71622;SDS011;59473;53.214;5.728;2022-08-25T05:12:10;9.47;;;3.33;;
71622;SDS011;59473;53.214;5.728;2022-08-25T05:14:36;10.53;;;3.20;;
71622;SDS011;59473;53.214;5.728;2022-08-25T05:17:01;8.37;;;3.53;;
71622;SDS011;59473;53.214;5.728;2022-08-25T05:19:26;6.20;;;3.10;;
71622;SDS011;59473;53.214;5.728;2022-08-25T05:21:52;8.03;;;3.67;;
71622;SDS011;59473;53.214;5.728;2022-08-25T05:24:18;8.60;;;4.03;;
71622;SDS011;59473;53.214;5.728;2022-08-25T05:26:43;7.23;;;3.50;;
71622;SDS011;59473;53.214;5.728;2022-08-25T05:29:08;8.60;;;3.17;;
71622;SDS011;59473;53.214;5.728;2022-08-25T05:31:35;9.25;;;3.42;;
71622;SDS011;59473;53.214;5.728;2022-08-25T05:34:03;9.88;;;3.38;;
71622;SDS011;59473;53.214;5.728;2022-08-25T05:36:29;10.83;;;3.13;;
71622;SDS011;59473;53.214;5.728;2022-08-25T05:38:54;8.40;;;3.17;;
71622;SDS011;59473;53.214;5.728;2022-08-25T05:41:20;7.68;;;3.17;;
71622;SDS011;59473;53.214;5.728;2022-08-25T05:43:46;14.57;;;3.40;;
71622;SDS011;59473;53.214;5.728;2022-08-25T05:48:48;9.02;;;3.50;;
71622;SDS011;59473;53.214;5.728;2022-08-25T05:51:13;8.95;;;3.53;;
71622;SDS011;59473;53.214;5.728;2022-08-25T05:53:40;9.50;;;3.47;;
71622;SDS011;59473;53.214;5.728;2022-08-25T05:56:08;12.25;;;3.38;;
71622;SDS011;59473;53.214;5.728;2022-08-25T05:58:33;10.53;;;3.77;;
71622;SDS011;59473;53.214;5.728;2022-08-25T06:00:59;7.72;;;3.47;;
71622;SDS011;59473;53.214;5.728;2022-08-25T06:03:43;10.40;;;3.75;;
71622;SDS011;59473;53.214;5.728;2022-08-25T06:06:09;8.18;;;3.53;;
71622;SDS011;59473;53.214;5.728;2022-08-25T06:08:34;7.97;;;3.27;;
71622;SDS011;59473;53.214;5.728;2022-08-25T06:11:00;10.53;;;4.03;;
71622;SDS011;59473;53.214;5.728;2022-08-25T06:13:25;10.50;;;3.73;;
71622;SDS011;59473;53.214;5.728;2022-08-25T06:15:55;9.13;;;3.87;;
71622;SDS011;59473;53.214;5.728;2022-08-25T06:18:21;10.20;;;3.83;;
71622;SDS011;59473;53.214;5.728;2022-08-25T06:20:46;8.90;;;3.43;;
71622;SDS011;59473;53.214;5.728;2022-08-25T06:23:12;11.23;;;3.73;;
71622;SDS011;59473;53.214;5.728;2022-08-25T06:25:37;10.23;;;4.00;;
71622;SDS011;59473;53.214;5.728;2022-08-25T06:28:04;11.23;;;4.10;;
71622;SDS011;59473;53.214;5.728;2022-08-25T06:30:29;11.27;;;3.87;;
71622;SDS011;59473;53.214;5.728;2022-08-25T06:32:55;9.23;;;3.22;;
71622;SDS011;59473;53.214;5.728;2022-08-25T06:35:20;9.93;;;3.53;;
71622;SDS011;59473;53.214;5.728;2022-08-25T06:37:46;12.38;;;3.70;;
71622;SDS011;59473;53.214;5.728;2022-08-25T06:40:12;9.43;;;3.13;;
71622;SDS011;59473;53.214;5.728;2022-08-25T06:42:38;6.55;;;3.40;;
71622;SDS011;59473;53.214;5.728;2022-08-25T06:45:03;7.17;;;2.97;;
71622;SDS011;59473;53.214;5.728;2022-08-25T06:47:29;10.67;;;3.80;;
71622;SDS011;59473;53.214;5.728;2022-08-25T06:49:54;9.00;;;3.00;;
71622;SDS011;59473;53.214;5.728;2022-08-25T06:52:19;10.37;;;3.00;;
71622;SDS011;59473;53.214;5.728;2022-08-25T06:54:44;9.85;;;2.90;;
71622;SDS011;59473;53.214;5.728;2022-08-25T06:57:10;7.13;;;3.28;;
71622;SDS011;59473;53.214;5.728;2022-08-25T06:59:35;7.33;;;3.17;;
71622;SDS011;59473;53.214;5.728;2022-08-25T07:02:01;9.40;;;3.10;;
71622;SDS011;59473;53.214;5.728;2022-08-25T07:04:27;5.97;;;3.08;;
71622;SDS011;59473;53.214;5.728;2022-08-25T07:06:52;7.27;;;3.20;;
71622;SDS011;59473;53.214;5.728;2022-08-25T07:09:17;6.17;;;3.00;;
71622;SDS011;59473;53.214;5.728;2022-08-25T07:11:43;9.53;;;2.87;;
71622;SDS011;59473;53.214;5.728;2022-08-25T07:14:10;6.68;;;3.30;;
71622;SDS011;59473;53.214;5.728;2022-08-25T07:16:36;7.28;;;3.00;;
71622;SDS011;59473;53.214;5.728;2022-08-25T07:19:02;7.63;;;3.23;;
71622;SDS011;59473;53.214;5.728;2022-08-25T07:21:28;7.90;;;2.85;;
71622;SDS011;59473;53.214;5.728;2022-08-25T07:23:54;7.65;;;2.97;;
71622;SDS011;59473;53.214;5.728;2022-08-25T07:26:24;8.93;;;2.73;;
71622;SDS011;59473;53.214;5.728;2022-08-25T07:28:49;9.80;;;3.15;;
71622;SDS011;59473;53.214;5.728;2022-08-25T07:31:14;7.80;;;2.73;;
71622;SDS011;59473;53.214;5.728;2022-08-25T07:33:40;6.17;;;2.80;;
71622;SDS011;59473;53.214;5.728;2022-08-25T07:36:25;10.57;;;2.70;;
71622;SDS011;59473;53.214;5.728;2022-08-25T07:38:50;7.47;;;3.00;;
71622;SDS011;59473;53.214;5.728;2022-08-25T07:41:16;8.20;;;3.10;;
71622;SDS011;59473;53.214;5.728;2022-08-25T07:43:41;7.97;;;3.10;;
71622;SDS011;59473;53.214;5.728;2022-08-25T07:46:06;13.73;;;5.00;;
71622;SDS011;59473;53.214;5.728;2022-08-25T07:48:32;7.40;;;2.90;;
71622;SDS011;59473;53.214;5.728;2022-08-25T07:50:57;7.93;;;2.63;;
71622;SDS011;59473;53.214;5.728;2022-08-25T07:53:22;7.90;;;2.77;;
71622;SDS011;59473;53.214;5.728;2022-08-25T07:55:47;5.73;;;2.53;;
71622;SDS011;59473;53.214;5.728;2022-08-25T07:58:13;7.83;;;2.80;;
71622;SDS011;59473;53.214;5.728;2022-08-25T08:00:39;8.48;;;2.55;;
71622;SDS011;59473;53.214;5.728;2022-08-25T08:03:06;7.87;;;2.90;;
71622;SDS011;59473;53.214;5.728;2022-08-25T08:05:32;9.77;;;3.00;;
71622;SDS011;59473;53.214;5.728;2022-08-25T08:07:57;7.63;;;2.63;;
71622;SDS011;59473;53.214;5.728;2022-08-25T08:10:23;6.47;;;2.60;;
71622;SDS011;59473;53.214;5.728;2022-08-25T08:12:49;6.95;;;2.95;;
71622;SDS011;59473;53.214;5.728;2022-08-25T08:15:15;6.57;;;2.70;;
71622;SDS011;59473;53.214;5.728;2022-08-25T08:17:40;13.53;;;2.50;;
71622;SDS011;59473;53.214;5.728;2022-08-25T08:20:06;6.65;;;2.60;;
71622;SDS011;59473;53.214;5.728;2022-08-25T08:22:35;7.15;;;2.40;;
71622;SDS011;59473;53.214;5.728;2022-08-25T08:25:01;9.17;;;2.87;;
71622;SDS011;59473;53.214;5.728;2022-08-25T08:27:26;10.57;;;2.57;;
71622;SDS011;59473;53.214;5.728;2022-08-25T08:29:51;7.20;;;2.50;;
71622;SDS011;59473;53.214;5.728;2022-08-25T08:32:17;8.87;;;2.33;;
71622;SDS011;59473;53.214;5.728;2022-08-25T08:34:42;6.77;;;2.80;;
71622;SDS011;59473;53.214;5.728;2022-08-25T08:37:08;9.57;;;2.83;;
71622;SDS011;59473;53.214;5.728;2022-08-25T08:39:33;5.25;;;2.45;;
71622;SDS011;59473;53.214;5.728;2022-08-25T08:42:01;7.90;;;2.40;;
71622;SDS011;59473;53.214;5.728;2022-08-25T08:44:50;8.20;;;2.43;;
71622;SDS011;59473;53.214;5.728;2022-08-25T08:50:10;8.48;;;2.30;;
71622;SDS011;59473;53.214;5.728;2022-08-25T08:55:54;6.68;;;2.40;;
71622;SDS011;59473;53.214;5.728;2022-08-25T08:57:54;5.37;;;2.40;;
71622;SDS011;59473;53.214;5.728;2022-08-25T09:00:20;7.95;;;2.20;;
71622;SDS011;59473;53.214;5.728;2022-08-25T09:02:51;7.63;;;2.70;;
71622;SDS011;59473;53.214;5.728;2022-08-25T09:05:19;8.30;;;2.40;;
71622;SDS011;59473;53.214;5.728;2022-08-25T09:07:47;8.88;;;2.10;;
71622;SDS011;59473;53.214;5.728;2022-08-25T09:10:14;7.55;;;2.17;;
71622;SDS011;59473;53.214;5.728;2022-08-25T09:12:42;6.43;;;2.33;;
71622;SDS011;59473;53.214;5.728;2022-08-25T09:15:15;6.53;;;2.47;;
71622;SDS011;59473;53.214;5.728;2022-08-25T09:18:04;7.53;;;2.53;;
71622;SDS011;59473;53.214;5.728;2022-08-25T09:20:49;7.97;;;2.10;;
71622;SDS011;59473;53.214;5.728;2022-08-25T09:33:44;6.47;;;2.20;;
71622;SDS011;59473;53.214;5.728;2022-08-25T09:36:09;12.83;;;2.00;;
71622;SDS011;59473;53.214;5.728;2022-08-25T09:38:35;9.20;;;2.10;;
71622;SDS011;59473;53.214;5.728;2022-08-25T09:41:00;6.20;;;2.20;;
71622;SDS011;59473;53.214;5.728;2022-08-25T09:50:52;4.90;;;1.87;;
71622;SDS011;59473;53.214;5.728;2022-08-25T09:53:18;7.60;;;2.20;;
71622;SDS011;59473;53.214;5.728;2022-08-25T09:55:44;7.70;;;2.33;;
71622;SDS011;59473;53.214;5.728;2022-08-25T09:58:21;6.72;;;2.40;;
71622;SDS011;59473;53.214;5.728;2022-08-25T10:01:10;7.18;;;1.95;;
71622;SDS011;59473;53.214;5.728;2022-08-25T10:03:37;6.35;;;2.10;;
71622;SDS011;59473;53.214;5.728;2022-08-25T10:06:16;7.25;;;2.15;;
71622;SDS011;59473;53.214;5.728;2022-08-25T10:11:11;6.43;;;2.00;;
71622;SDS011;59473;53.214;5.728;2022-08-25T10:16:08;6.85;;;2.15;;
71622;SDS011;59473;53.214;5.728;2022-08-25T10:18:34;11.37;;;1.80;;
71622;SDS011;59473;53.214;5.728;2022-08-25T10:23:24;6.83;;;1.90;;
71622;SDS011;59473;53.214;5.728;2022-08-25T10:25:50;7.00;;;1.90;;
71622;SDS011;59473;53.214;5.728;2022-08-25T10:28:21;6.13;;;1.73;;
71622;SDS011;59473;53.214;5.728;2022-08-25T10:49:18;6.40;;;1.90;;
71622;SDS011;59473;53.214;5.728;2022-08-25T10:56:53;6.45;;;1.63;;
71622;SDS011;59473;53.214;5.728;2022-08-25T11:04:32;5.23;;;1.83;;
71622;SDS011;59473;53.214;5.728;2022-08-25T11:07:21;5.05;;;1.85;;
71622;SDS011;59473;53.214;5.728;2022-08-25T11:09:49;5.00;;;1.58;;
71622;SDS011;59473;53.214;5.728;2022-08-25T11:17:13;6.10;;;2.10;;
71622;SDS011;59473;53.214;5.728;2022-08-25T11:19:41;5.90;;;2.10;;
71622;SDS011;59473;53.214;5.728;2022-08-25T11:22:11;5.38;;;2.00;;
71622;SDS011;59473;53.214;5.728;2022-08-25T11:25:25;4.35;;;1.80;;
71622;SDS011;59473;53.214;5.728;2022-08-25T11:27:27;5.43;;;2.03;;
71622;SDS011;59473;53.214;5.728;2022-08-25T11:29:58;5.78;;;1.90;;
71622;SDS011;59473;53.214;5.728;2022-08-25T11:32:26;6.93;;;2.10;;
71622;SDS011;59473;53.214;5.728;2022-08-25T11:34:57;7.63;;;2.45;;
71622;SDS011;59473;53.214;5.728;2022-08-25T11:37:24;4.30;;;2.10;;
71622;SDS011;59473;53.214;5.728;2022-08-25T11:44:46;5.10;;;1.90;;
71622;SDS011;59473;53.214;5.728;2022-08-25T11:49:58;5.85;;;2.40;;
71622;SDS011;59473;53.214;5.728;2022-08-25T11:57:31;4.47;;;2.00;;
71622;SDS011;59473;53.214;5.728;2022-08-25T12:13:44;8.95;;;2.10;;
71622;SDS011;59473;53.214;5.728;2022-08-25T12:21:43;6.00;;;2.38;;
71622;SDS011;59473;53.214;5.728;2022-08-25T12:24:09;6.03;;;2.20;;
71622;SDS011;59473;53.214;5.728;2022-08-25T12:26:39;5.65;;;2.03;;
71622;SDS011;59473;53.214;5.728;2022-08-25T12:29:18;6.97;;;1.80;;
71622;SDS011;59473;53.214;5.728;2022-08-25T12:31:51;7.10;;;1.90;;
71622;SDS011;59473;53.214;5.728;2022-08-25T12:37:11;6.97;;;1.90;;
71622;SDS011;59473;53.214;5.728;2022-08-25T12:39:41;5.35;;;2.00;;
71622;SDS011;59473;53.214;5.728;2022-08-25T12:42:17;5.22;;;2.10;;
71622;SDS011;59473;53.214;5.728;2022-08-25T12:44:45;5.55;;;2.20;;
71622;SDS011;59473;53.214;5.728;2022-08-25T12:49:37;6.20;;;2.05;;
71622;SDS011;59473;53.214;5.728;2022-08-25T12:54:57;5.57;;;1.90;;
71622;SDS011;59473;53.214;5.728;2022-08-25T13:00:04;6.35;;;2.17;;
71622;SDS011;59473;53.214;5.728;2022-08-25T13:10:40;6.07;;;2.08;;
71622;SDS011;59473;53.214;5.728;2022-08-25T13:15:41;7.27;;;1.93;;
71622;SDS011;59473;53.214;5.728;2022-08-25T13:18:41;5.32;;;1.80;;
71622;SDS011;59473;53.214;5.728;2022-08-25T13:21:02;4.57;;;1.95;;
71622;SDS011;59473;53.214;5.728;2022-08-25T13:23:28;5.87;;;1.93;;
71622;SDS011;59473;53.214;5.728;2022-08-25T13:25:54;6.20;;;2.17;;
71622;SDS011;59473;53.214;5.728;2022-08-25T13:28:28;9.77;;;2.13;;
71622;SDS011;59473;53.214;5.728;2022-08-25T13:31:37;7.03;;;2.10;;
71622;SDS011;59473;53.214;5.728;2022-08-25T13:34:03;8.83;;;2.20;;
71622;SDS011;59473;53.214;5.728;2022-08-25T13:36:29;6.13;;;2.13;;
71622;SDS011;59473;53.214;5.728;2022-08-25T13:39:18;6.68;;;2.00;;
71622;SDS011;59473;53.214;5.728;2022-08-25T13:41:47;5.32;;;1.80;;
71622;SDS011;59473;53.214;5.728;2022-08-25T13:44:13;8.40;;;1.70;;
71622;SDS011;59473;53.214;5.728;2022-08-25T13:46:39;5.73;;;1.90;;
71622;SDS011;59473;53.214;5.728;2022-08-25T13:49:04;6.87;;;2.00;;
71622;SDS011;59473;53.214;5.728;2022-08-25T13:51:30;6.70;;;2.33;;
71622;SDS011;59473;53.214;5.728;2022-08-25T13:53:57;5.93;;;1.97;;
71622;SDS011;59473;53.214;5.728;2022-08-25T13:56:33;5.15;;;1.70;;
71622;SDS011;59473;53.214;5.728;2022-08-25T13:58:59;5.80;;;1.73;;
71622;SDS011;59473;53.214;5.728;2022-08-25T14:01:42;4.83;;;1.87;;
71622;SDS011;59473;53.214;5.728;2022-08-25T14:06:45;8.20;;;2.30;;
71622;SDS011;59473;53.214;5.728;2022-08-25T14:09:12;7.38;;;2.20;;
71622;SDS011;59473;53.214;5.728;2022-08-25T14:11:41;6.28;;;2.10;;
71622;SDS011;59473;53.214;5.728;2022-08-25T14:14:09;4.77;;;1.97;;
71622;SDS011;59473;53.214;5.728;2022-08-25T14:16:47;5.93;;;2.00;;
71622;SDS011;59473;53.214;5.728;2022-08-25T14:19:14;5.05;;;2.00;;
71622;SDS011;59473;53.214;5.728;2022-08-25T14:21:40;7.43;;;2.17;;
71622;SDS011;59473;53.214;5.728;2022-08-25T14:24:05;6.20;;;2.00;;
71622;SDS011;59473;53.214;5.728;2022-08-25T14:26:31;4.45;;;1.73;;
71622;SDS011;59473;53.214;5.728;2022-08-25T14:28:56;4.57;;;1.83;;
71622;SDS011;59473;53.214;5.728;2022-08-25T14:31:25;8.27;;;1.83;;
71622;SDS011;59473;53.214;5.728;2022-08-25T14:33:59;5.05;;;1.98;;
71622;SDS011;59473;53.214;5.728;2022-08-25T14:36:26;8.50;;;2.23;;
71622;SDS011;59473;53.214;5.728;2022-08-25T14:38:53;6.18;;;2.00;;
71622;SDS011;59473;53.214;5.728;2022-08-25T14:41:18;5.88;;;2.08;;
71622;SDS011;59473;53.214;5.728;2022-08-25T14:43:44;5.23;;;2.13;;
71622;SDS011;59473;53.214;5.728;2022-08-25T14:46:12;5.60;;;2.07;;
71622;SDS011;59473;53.214;5.728;2022-08-25T14:48:41;4.72;;;1.73;;
71622;SDS011;59473;53.214;5.728;2022-08-25T14:51:07;7.05;;;2.15;;
71622;SDS011;59473;53.214;5.728;2022-08-25T14:53:34;5.20;;;1.70;;
71622;SDS011;59473;53.214;5.728;2022-08-25T14:55:59;5.80;;;2.00;;
71622;SDS011;59473;53.214;5.728;2022-08-25T14:58:25;6.38;;;1.98;;
71622;SDS011;59473;53.214;5.728;2022-08-25T15:00:50;5.40;;;1.70;;
71622;SDS011;59473;53.214;5.728;2022-08-25T15:03:26;4.78;;;1.63;;
71622;SDS011;59473;53.214;5.728;2022-08-25T15:05:52;5.53;;;1.80;;
71622;SDS011;59473;53.214;5.728;2022-08-25T15:08:18;6.70;;;1.80;;
71622;SDS011;59473;53.214;5.728;2022-08-25T15:11:02;6.75;;;2.10;;
71622;SDS011;59473;53.214;5.728;2022-08-25T15:13:27;8.03;;;2.17;;
71622;SDS011;59473;53.214;5.728;2022-08-25T15:15:53;5.23;;;2.10;;
71622;SDS011;59473;53.214;5.728;2022-08-25T15:18:19;5.17;;;2.37;;
71622;SDS011;59473;53.214;5.728;2022-08-25T15:20:44;5.70;;;2.17;;
71622;SDS011;59473;53.214;5.728;2022-08-25T15:23:10;5.70;;;1.83;;
71622;SDS011;59473;53.214;5.728;2022-08-25T15:25:35;6.00;;;2.23;;
71622;SDS011;59473;53.214;5.728;2022-08-25T15:28:04;4.50;;;1.70;;
71622;SDS011;59473;53.214;5.728;2022-08-25T15:30:29;5.57;;;1.70;;
71622;SDS011;59473;53.214;5.728;2022-08-25T15:32:55;5.27;;;1.90;;
71622;SDS011;59473;53.214;5.728;2022-08-25T15:35:20;7.90;;;1.90;;
71622;SDS011;59473;53.214;5.728;2022-08-25T15:37:45;6.20;;;1.70;;
71622;SDS011;59473;53.214;5.728;2022-08-25T15:40:12;4.95;;;1.95;;
71622;SDS011;59473;53.214;5.728;2022-08-25T15:42:37;4.43;;;1.67;;
71622;SDS011;59473;53.214;5.728;2022-08-25T15:45:03;3.53;;;1.67;;
71622;SDS011;59473;53.214;5.728;2022-08-25T15:47:28;4.30;;;1.70;;
71622;SDS011;59473;53.214;5.728;2022-08-25T15:49:59;5.27;;;1.97;;
71622;SDS011;59473;53.214;5.728;2022-08-25T15:52:26;7.40;;;2.13;;
71622;SDS011;59473;53.214;5.728;2022-08-25T15:54:52;4.88;;;1.83;;
71622;SDS011;59473;53.214;5.728;2022-08-25T15:57:17;4.40;;;1.83;;
71622;SDS011;59473;53.214;5.728;2022-08-25T15:59:42;5.57;;;1.80;;
71622;SDS011;59473;53.214;5.728;2022-08-25T16:02:07;6.13;;;2.00;;
71622;SDS011;59473;53.214;5.728;2022-08-25T16:04:32;6.30;;;1.80;;
71622;SDS011;59473;53.214;5.728;2022-08-25T16:06:58;6.13;;;2.90;;
71622;SDS011;59473;53.214;5.728;2022-08-25T16:09:24;16.50;;;11.45;;
71622;SDS011;59473;53.214;5.728;2022-08-25T16:11:50;6.33;;;2.43;;
71622;SDS011;59473;53.214;5.728;2022-08-25T16:14:15;5.28;;;2.05;;
71622;SDS011;59473;53.214;5.728;2022-08-25T16:16:41;7.37;;;2.90;;
71622;SDS011;59473;53.214;5.728;2022-08-25T16:19:06;5.40;;;2.20;;
71622;SDS011;59473;53.214;5.728;2022-08-25T16:21:32;4.43;;;2.13;;
71622;SDS011;59473;53.214;5.728;2022-08-25T16:24:00;7.57;;;2.55;;
71622;SDS011;59473;53.214;5.728;2022-08-25T16:26:26;7.20;;;3.00;;
71622;SDS011;59473;53.214;5.728;2022-08-25T16:28:51;5.22;;;2.42;;
71622;SDS011;59473;53.214;5.728;2022-08-25T16:31:17;5.80;;;2.00;;
71622;SDS011;59473;53.214;5.728;2022-08-25T16:33:42;15.05;;;6.95;;
71622;SDS011;59473;53.214;5.728;2022-08-25T16:36:15;4.83;;;1.90;;
71622;SDS011;59473;53.214;5.728;2022-08-25T16:38:41;5.45;;;2.15;;
71622;SDS011;59473;53.214;5.728;2022-08-25T16:41:08;6.78;;;1.95;;
71622;SDS011;59473;53.214;5.728;2022-08-25T16:43:33;10.95;;;5.50;;
71622;SDS011;59473;53.214;5.728;2022-08-25T16:46:02;8.23;;;2.60;;
71622;SDS011;59473;53.214;5.728;2022-08-25T16:48:28;10.73;;;3.67;;